sensor_id;sensor_type;location;lat;lon;timestamp;P1;durP1;ratioP1;P2;durP2;ratioP2
17173;SDS011;8702;48.130;-1.696;2022-09-01T00:00:05;10.80;;;4.63;;
17173;SDS011;8702;48.130;-1.696;2022-09-01T00:02:37;7.23;;;4.53;;
17173;SDS011;8702;48.130;-1.696;2022-09-01T00:05:05;8.77;;;4.10;;
17173;SDS011;8702;48.130;-1.696;2022-09-01T00:07:32;5.20;;;4.17;;
17173;SDS011;8702;48.130;-1.696;2022-09-01T00:10:00;9.13;;;4.47;;
17173;SDS011;8702;48.130;-1.696;2022-09-01T00:12:33;11.30;;;4.37;;
17173;SDS011;8702;48.130;-1.696;2022-09-01T00:15:02;7.40;;;4.13;;
17173;SDS011;8702;48.130;-1.696;2022-09-01T00:17:30;7.63;;;4.47;;
17173;SDS011;8702;48.130;-1.696;2022-09-01T00:19:57;10.50;;;4.37;;
17173;SDS011;8702;48.130;-1.696;2022-09-01T00:22:25;6.67;;;4.37;;
17173;SDS011;8702;48.130;-1.696;2022-09-01T00:24:52;9.17;;;4.87;;
17173;SDS011;8702;48.130;-1.696;2022-09-01T00:27:19;8.30;;;4.23;;
17173;SDS011;8702;48.130;-1.696;2022-09-01T00:29:50;9.90;;;4.27;;
17173;SDS011;8702;48.130;-1.696;2022-09-01T00:32:17;8.73;;;4.00;;
17173;SDS011;8702;48.130;-1.696;2022-09-01T00:34:45;11.87;;;4.07;;
17173;SDS011;8702;48.130;-1.696;2022-09-01T00:37:11;5.50;;;3.73;;
17173;SDS011;8702;48.130;-1.696;2022-09-01T00:39:38;5.60;;;4.43;;
17173;SDS011;8702;48.130;-1.696;2022-09-01T00:42:05;11.27;;;4.60;;
17173;SDS011;8702;48.130;-1.696;2022-09-01T00:44:34;5.80;;;4.37;;
17173;SDS011;8702;48.130;-1.696;2022-09-01T00:47:04;9.13;;;4.50;;
17173;SDS011;8702;48.130;-1.696;2022-09-01T00:49:32;9.53;;;4.30;;
17173;SDS011;8702;48.130;-1.696;2022-09-01T00:52:04;7.30;;;4.33;;
17173;SDS011;8702;48.130;-1.696;2022-09-01T00:54:34;10.03;;;4.67;;
17173;SDS011;8702;48.130;-1.696;2022-09-01T00:57:06;11.90;;;4.93;;
17173;SDS011;8702;48.130;-1.696;2022-09-01T00:59:35;8.80;;;5.17;;
17173;SDS011;8702;48.130;-1.696;2022-09-01T01:02:09;6.20;;;4.77;;
17173;SDS011;8702;48.130;-1.696;2022-09-01T01:04:37;6.93;;;4.63;;
17173;SDS011;8702;48.130;-1.696;2022-09-01T01:07:05;6.70;;;4.80;;
17173;SDS011;8702;48.130;-1.696;2022-09-01T01:09:33;8.67;;;5.33;;
17173;SDS011;8702;48.130;-1.696;2022-09-01T01:12:04;7.30;;;4.77;;
17173;SDS011;8702;48.130;-1.696;2022-09-01T01:14:33;6.43;;;4.50;;
17173;SDS011;8702;48.130;-1.696;2022-09-01T01:17:01;9.37;;;4.93;;
17173;SDS011;8702;48.130;-1.696;2022-09-01T01:19:33;7.83;;;4.90;;
17173;SDS011;8702;48.130;-1.696;2022-09-01T01:22:26;10.27;;;5.57;;
17173;SDS011;8702;48.130;-1.696;2022-09-01T01:25:18;8.43;;;4.57;;
17173;SDS011;8702;48.130;-1.696;2022-09-01T01:27:46;8.07;;;4.63;;
17173;SDS011;8702;48.130;-1.696;2022-09-01T01:30:14;9.00;;;4.63;;
17173;SDS011;8702;48.130;-1.696;2022-09-01T01:32:43;9.97;;;4.53;;
17173;SDS011;8702;48.130;-1.696;2022-09-01T01:35:12;7.10;;;4.40;;
17173;SDS011;8702;48.130;-1.696;2022-09-01T01:37:47;5.43;;;4.23;;
17173;SDS011;8702;48.130;-1.696;2022-09-01T01:40:17;10.57;;;5.27;;
17173;SDS011;8702;48.130;-1.696;2022-09-01T01:42:47;7.27;;;4.80;;
17173;SDS011;8702;48.130;-1.696;2022-09-01T01:45:16;8.87;;;4.57;;
17173;SDS011;8702;48.130;-1.696;2022-09-01T01:47:45;8.93;;;4.40;;
17173;SDS011;8702;48.130;-1.696;2022-09-01T01:50:17;7.63;;;4.20;;
17173;SDS011;8702;48.130;-1.696;2022-09-01T01:52:45;8.83;;;4.80;;
17173;SDS011;8702;48.130;-1.696;2022-09-01T01:55:12;7.73;;;4.43;;
17173;SDS011;8702;48.130;-1.696;2022-09-01T01:57:45;7.03;;;4.77;;
17173;SDS011;8702;48.130;-1.696;2022-09-01T02:00:14;8.97;;;5.07;;
17173;SDS011;8702;48.130;-1.696;2022-09-01T02:02:45;6.10;;;4.60;;
17173;SDS011;8702;48.130;-1.696;2022-09-01T02:05:16;7.40;;;4.57;;
17173;SDS011;8702;48.130;-1.696;2022-09-01T02:07:49;7.73;;;4.37;;
17173;SDS011;8702;48.130;-1.696;2022-09-01T02:10:20;7.40;;;4.50;;
17173;SDS011;8702;48.130;-1.696;2022-09-01T02:12:50;9.37;;;5.07;;
17173;SDS011;8702;48.130;-1.696;2022-09-01T02:15:17;7.70;;;5.00;;
17173;SDS011;8702;48.130;-1.696;2022-09-01T02:17:44;7.13;;;4.60;;
17173;SDS011;8702;48.130;-1.696;2022-09-01T02:20:13;12.60;;;5.13;;
17173;SDS011;8702;48.130;-1.696;2022-09-01T02:22:41;8.67;;;5.00;;
17173;SDS011;8702;48.130;-1.696;2022-09-01T02:25:09;9.27;;;5.50;;
17173;SDS011;8702;48.130;-1.696;2022-09-01T02:27:40;11.60;;;5.47;;
17173;SDS011;8702;48.130;-1.696;2022-09-01T02:30:10;14.83;;;5.40;;
17173;SDS011;8702;48.130;-1.696;2022-09-01T02:32:37;12.10;;;5.27;;
17173;SDS011;8702;48.130;-1.696;2022-09-01T02:35:06;7.30;;;5.27;;
17173;SDS011;8702;48.130;-1.696;2022-09-01T02:37:36;5.40;;;4.90;;
17173;SDS011;8702;48.130;-1.696;2022-09-01T02:40:05;7.20;;;5.47;;
17173;SDS011;8702;48.130;-1.696;2022-09-01T02:42:36;6.63;;;5.03;;
17173;SDS011;8702;48.130;-1.696;2022-09-01T02:45:07;10.37;;;5.40;;
17173;SDS011;8702;48.130;-1.696;2022-09-01T02:47:41;11.77;;;5.53;;
17173;SDS011;8702;48.130;-1.696;2022-09-01T02:50:09;9.23;;;5.63;;
17173;SDS011;8702;48.130;-1.696;2022-09-01T02:52:41;13.73;;;5.60;;
17173;SDS011;8702;48.130;-1.696;2022-09-01T02:55:09;11.40;;;5.77;;
17173;SDS011;8702;48.130;-1.696;2022-09-01T02:57:37;8.40;;;5.50;;
17173;SDS011;8702;48.130;-1.696;2022-09-01T03:00:05;9.00;;;5.77;;
17173;SDS011;8702;48.130;-1.696;2022-09-01T03:02:47;7.97;;;5.00;;
17173;SDS011;8702;48.130;-1.696;2022-09-01T03:05:17;5.93;;;4.70;;
17173;SDS011;8702;48.130;-1.696;2022-09-01T03:07:49;8.70;;;5.50;;
17173;SDS011;8702;48.130;-1.696;2022-09-01T03:10:20;8.40;;;5.27;;
17173;SDS011;8702;48.130;-1.696;2022-09-01T03:12:51;6.57;;;5.13;;
17173;SDS011;8702;48.130;-1.696;2022-09-01T03:15:19;9.30;;;5.67;;
17173;SDS011;8702;48.130;-1.696;2022-09-01T03:17:48;8.13;;;5.00;;
17173;SDS011;8702;48.130;-1.696;2022-09-01T03:20:16;9.10;;;5.70;;
17173;SDS011;8702;48.130;-1.696;2022-09-01T03:22:46;9.40;;;5.87;;
17173;SDS011;8702;48.130;-1.696;2022-09-01T03:25:14;8.37;;;6.17;;
17173;SDS011;8702;48.130;-1.696;2022-09-01T03:27:42;11.17;;;5.87;;
17173;SDS011;8702;48.130;-1.696;2022-09-01T03:30:11;10.03;;;5.53;;
17173;SDS011;8702;48.130;-1.696;2022-09-01T03:32:38;9.37;;;5.23;;
17173;SDS011;8702;48.130;-1.696;2022-09-01T03:35:07;11.23;;;5.93;;
17173;SDS011;8702;48.130;-1.696;2022-09-01T03:37:34;10.07;;;5.83;;
17173;SDS011;8702;48.130;-1.696;2022-09-01T03:40:02;8.53;;;5.77;;
17173;SDS011;8702;48.130;-1.696;2022-09-01T03:42:30;8.97;;;5.63;;
17173;SDS011;8702;48.130;-1.696;2022-09-01T03:44:57;9.30;;;5.30;;
17173;SDS011;8702;48.130;-1.696;2022-09-01T03:47:26;9.83;;;6.00;;
17173;SDS011;8702;48.130;-1.696;2022-09-01T03:49:53;8.03;;;5.63;;
17173;SDS011;8702;48.130;-1.696;2022-09-01T03:52:22;10.87;;;6.33;;
17173;SDS011;8702;48.130;-1.696;2022-09-01T03:54:54;8.73;;;5.73;;
17173;SDS011;8702;48.130;-1.696;2022-09-01T03:57:23;9.67;;;5.90;;
17173;SDS011;8702;48.130;-1.696;2022-09-01T03:59:51;10.07;;;5.67;;
17173;SDS011;8702;48.130;-1.696;2022-09-01T04:02:18;10.17;;;6.67;;
17173;SDS011;8702;48.130;-1.696;2022-09-01T04:04:46;9.00;;;6.27;;
17173;SDS011;8702;48.130;-1.696;2022-09-01T04:07:13;7.17;;;6.10;;
17173;SDS011;8702;48.130;-1.696;2022-09-01T04:09:42;9.77;;;5.83;;
17173;SDS011;8702;48.130;-1.696;2022-09-01T04:12:09;13.60;;;6.20;;
17173;SDS011;8702;48.130;-1.696;2022-09-01T04:14:37;8.27;;;5.93;;
17173;SDS011;8702;48.130;-1.696;2022-09-01T04:17:04;12.77;;;6.17;;
17173;SDS011;8702;48.130;-1.696;2022-09-01T04:19:49;13.77;;;6.53;;
17173;SDS011;8702;48.130;-1.696;2022-09-01T04:22:15;11.57;;;6.40;;
17173;SDS011;8702;48.130;-1.696;2022-09-01T04:24:46;9.67;;;6.80;;
17173;SDS011;8702;48.130;-1.696;2022-09-01T04:27:13;10.80;;;6.50;;
17173;SDS011;8702;48.130;-1.696;2022-09-01T04:29:42;10.83;;;6.77;;
17173;SDS011;8702;48.130;-1.696;2022-09-01T04:32:10;11.20;;;6.97;;
17173;SDS011;8702;48.130;-1.696;2022-09-01T04:34:38;10.47;;;6.67;;
17173;SDS011;8702;48.130;-1.696;2022-09-01T04:37:07;9.03;;;6.33;;
17173;SDS011;8702;48.130;-1.696;2022-09-01T04:39:37;8.43;;;6.27;;
17173;SDS011;8702;48.130;-1.696;2022-09-01T04:42:06;11.40;;;6.73;;
17173;SDS011;8702;48.130;-1.696;2022-09-01T04:44:35;10.97;;;6.80;;
17173;SDS011;8702;48.130;-1.696;2022-09-01T04:47:02;8.37;;;6.90;;
17173;SDS011;8702;48.130;-1.696;2022-09-01T04:49:34;10.03;;;6.17;;
17173;SDS011;8702;48.130;-1.696;2022-09-01T04:52:02;12.80;;;6.53;;
17173;SDS011;8702;48.130;-1.696;2022-09-01T04:54:30;7.27;;;6.43;;
17173;SDS011;8702;48.130;-1.696;2022-09-01T04:57:01;11.27;;;6.60;;
17173;SDS011;8702;48.130;-1.696;2022-09-01T04:59:32;12.50;;;7.20;;
17173;SDS011;8702;48.130;-1.696;2022-09-01T05:02:00;12.47;;;7.17;;
17173;SDS011;8702;48.130;-1.696;2022-09-01T05:04:27;11.00;;;7.10;;
17173;SDS011;8702;48.130;-1.696;2022-09-01T05:06:58;8.63;;;6.33;;
17173;SDS011;8702;48.130;-1.696;2022-09-01T05:09:26;7.97;;;6.13;;
17173;SDS011;8702;48.130;-1.696;2022-09-01T05:11:55;12.83;;;6.77;;
17173;SDS011;8702;48.130;-1.696;2022-09-01T05:14:26;7.93;;;5.90;;
17173;SDS011;8702;48.130;-1.696;2022-09-01T05:16:56;7.30;;;6.43;;
17173;SDS011;8702;48.130;-1.696;2022-09-01T05:19:24;13.00;;;7.33;;
17173;SDS011;8702;48.130;-1.696;2022-09-01T05:21:53;11.83;;;6.70;;
17173;SDS011;8702;48.130;-1.696;2022-09-01T05:24:22;7.87;;;6.53;;
17173;SDS011;8702;48.130;-1.696;2022-09-01T05:26:53;9.13;;;7.17;;
17173;SDS011;8702;48.130;-1.696;2022-09-01T05:29:20;7.33;;;6.63;;
17173;SDS011;8702;48.130;-1.696;2022-09-01T05:31:48;10.63;;;7.23;;
17173;SDS011;8702;48.130;-1.696;2022-09-01T05:34:18;9.00;;;7.03;;
17173;SDS011;8702;48.130;-1.696;2022-09-01T05:36:51;8.00;;;6.70;;
17173;SDS011;8702;48.130;-1.696;2022-09-01T05:39:21;11.63;;;7.70;;
17173;SDS011;8702;48.130;-1.696;2022-09-01T05:41:49;10.87;;;6.87;;
17173;SDS011;8702;48.130;-1.696;2022-09-01T05:44:18;11.67;;;7.70;;
17173;SDS011;8702;48.130;-1.696;2022-09-01T05:46:46;10.43;;;7.67;;
17173;SDS011;8702;48.130;-1.696;2022-09-01T05:49:14;10.27;;;7.03;;
17173;SDS011;8702;48.130;-1.696;2022-09-01T05:51:44;11.13;;;7.20;;
17173;SDS011;8702;48.130;-1.696;2022-09-01T05:54:16;13.63;;;7.20;;
17173;SDS011;8702;48.130;-1.696;2022-09-01T05:56:45;11.67;;;7.73;;
17173;SDS011;8702;48.130;-1.696;2022-09-01T05:59:13;9.90;;;7.03;;
17173;SDS011;8702;48.130;-1.696;2022-09-01T06:01:41;10.83;;;7.87;;
17173;SDS011;8702;48.130;-1.696;2022-09-01T06:04:08;9.00;;;6.63;;
17173;SDS011;8702;48.130;-1.696;2022-09-01T06:06:37;8.83;;;6.97;;
17173;SDS011;8702;48.130;-1.696;2022-09-01T06:09:09;12.97;;;6.57;;
17173;SDS011;8702;48.130;-1.696;2022-09-01T06:11:36;10.60;;;6.90;;
17173;SDS011;8702;48.130;-1.696;2022-09-01T06:14:03;8.97;;;6.73;;
17173;SDS011;8702;48.130;-1.696;2022-09-01T06:16:30;11.63;;;7.90;;
17173;SDS011;8702;48.130;-1.696;2022-09-01T06:18:57;9.07;;;6.70;;
17173;SDS011;8702;48.130;-1.696;2022-09-01T06:21:25;13.20;;;7.00;;
17173;SDS011;8702;48.130;-1.696;2022-09-01T06:23:53;7.00;;;6.37;;
17173;SDS011;8702;48.130;-1.696;2022-09-01T06:26:24;12.60;;;7.00;;
17173;SDS011;8702;48.130;-1.696;2022-09-01T06:28:54;10.03;;;6.83;;
17173;SDS011;8702;48.130;-1.696;2022-09-01T06:31:22;9.97;;;6.47;;
17173;SDS011;8702;48.130;-1.696;2022-09-01T06:33:50;11.43;;;6.63;;
17173;SDS011;8702;48.130;-1.696;2022-09-01T06:36:18;8.70;;;6.17;;
17173;SDS011;8702;48.130;-1.696;2022-09-01T06:38:47;15.33;;;6.53;;
17173;SDS011;8702;48.130;-1.696;2022-09-01T06:41:15;7.30;;;6.10;;
17173;SDS011;8702;48.130;-1.696;2022-09-01T06:43:45;5.90;;;5.30;;
17173;SDS011;8702;48.130;-1.696;2022-09-01T06:46:13;13.20;;;6.10;;
17173;SDS011;8702;48.130;-1.696;2022-09-01T06:48:42;10.93;;;5.30;;
17173;SDS011;8702;48.130;-1.696;2022-09-01T06:51:11;9.57;;;5.73;;
17173;SDS011;8702;48.130;-1.696;2022-09-01T06:53:40;6.40;;;5.17;;
17173;SDS011;8702;48.130;-1.696;2022-09-01T06:56:08;9.50;;;5.33;;
17173;SDS011;8702;48.130;-1.696;2022-09-01T06:58:37;10.50;;;5.37;;
17173;SDS011;8702;48.130;-1.696;2022-09-01T07:01:08;9.50;;;5.70;;
17173;SDS011;8702;48.130;-1.696;2022-09-01T07:03:40;10.80;;;6.00;;
17173;SDS011;8702;48.130;-1.696;2022-09-01T07:06:08;9.83;;;5.43;;
17173;SDS011;8702;48.130;-1.696;2022-09-01T07:08:36;13.80;;;5.40;;
17173;SDS011;8702;48.130;-1.696;2022-09-01T07:11:06;8.07;;;4.63;;
17173;SDS011;8702;48.130;-1.696;2022-09-01T07:13:34;9.30;;;5.03;;
17173;SDS011;8702;48.130;-1.696;2022-09-01T07:16:03;8.00;;;5.30;;
17173;SDS011;8702;48.130;-1.696;2022-09-01T07:18:31;15.27;;;5.30;;
17173;SDS011;8702;48.130;-1.696;2022-09-01T07:20:59;6.97;;;4.70;;
17173;SDS011;8702;48.130;-1.696;2022-09-01T07:23:31;7.50;;;5.03;;
17173;SDS011;8702;48.130;-1.696;2022-09-01T07:25:58;8.83;;;4.90;;
17173;SDS011;8702;48.130;-1.696;2022-09-01T07:28:25;8.47;;;5.37;;
17173;SDS011;8702;48.130;-1.696;2022-09-01T07:30:56;6.73;;;4.77;;
17173;SDS011;8702;48.130;-1.696;2022-09-01T07:33:24;11.27;;;5.47;;
17173;SDS011;8702;48.130;-1.696;2022-09-01T07:35:55;10.30;;;5.30;;
17173;SDS011;8702;48.130;-1.696;2022-09-01T07:38:22;10.63;;;5.37;;
17173;SDS011;8702;48.130;-1.696;2022-09-01T07:40:50;10.17;;;5.47;;
17173;SDS011;8702;48.130;-1.696;2022-09-01T07:43:19;8.17;;;5.87;;
17173;SDS011;8702;48.130;-1.696;2022-09-01T07:45:50;12.43;;;5.37;;
17173;SDS011;8702;48.130;-1.696;2022-09-01T07:48:20;8.03;;;4.87;;
17173;SDS011;8702;48.130;-1.696;2022-09-01T07:50:50;6.80;;;5.20;;
17173;SDS011;8702;48.130;-1.696;2022-09-01T07:53:21;12.17;;;5.80;;
17173;SDS011;8702;48.130;-1.696;2022-09-01T07:55:49;9.20;;;5.47;;
17173;SDS011;8702;48.130;-1.696;2022-09-01T07:58:17;10.17;;;5.33;;
17173;SDS011;8702;48.130;-1.696;2022-09-01T08:00:46;12.03;;;5.63;;
17173;SDS011;8702;48.130;-1.696;2022-09-01T08:03:14;10.77;;;5.30;;
17173;SDS011;8702;48.130;-1.696;2022-09-01T08:05:42;9.57;;;5.37;;
17173;SDS011;8702;48.130;-1.696;2022-09-01T08:08:11;11.70;;;5.53;;
17173;SDS011;8702;48.130;-1.696;2022-09-01T08:10:40;7.50;;;5.10;;
17173;SDS011;8702;48.130;-1.696;2022-09-01T08:13:09;9.30;;;4.80;;
17173;SDS011;8702;48.130;-1.696;2022-09-01T08:15:36;6.23;;;4.77;;
17173;SDS011;8702;48.130;-1.696;2022-09-01T08:18:04;8.50;;;4.97;;
17173;SDS011;8702;48.130;-1.696;2022-09-01T08:20:31;10.87;;;4.87;;
17173;SDS011;8702;48.130;-1.696;2022-09-01T08:23:01;12.87;;;5.07;;
17173;SDS011;8702;48.130;-1.696;2022-09-01T08:25:29;13.13;;;4.40;;
17173;SDS011;8702;48.130;-1.696;2022-09-01T08:28:00;8.33;;;4.80;;
17173;SDS011;8702;48.130;-1.696;2022-09-01T08:30:28;9.83;;;4.77;;
17173;SDS011;8702;48.130;-1.696;2022-09-01T08:32:56;7.63;;;4.80;;
17173;SDS011;8702;48.130;-1.696;2022-09-01T08:35:23;9.37;;;5.40;;
17173;SDS011;8702;48.130;-1.696;2022-09-01T08:37:51;7.47;;;5.20;;
17173;SDS011;8702;48.130;-1.696;2022-09-01T08:40:18;8.70;;;5.17;;
17173;SDS011;8702;48.130;-1.696;2022-09-01T08:42:51;11.23;;;5.10;;
17173;SDS011;8702;48.130;-1.696;2022-09-01T08:45:28;14.40;;;5.70;;
17173;SDS011;8702;48.130;-1.696;2022-09-01T08:47:59;10.50;;;5.43;;
17173;SDS011;8702;48.130;-1.696;2022-09-01T08:50:32;9.27;;;5.17;;
17173;SDS011;8702;48.130;-1.696;2022-09-01T08:53:01;10.27;;;5.13;;
17173;SDS011;8702;48.130;-1.696;2022-09-01T08:55:34;12.50;;;5.17;;
17173;SDS011;8702;48.130;-1.696;2022-09-01T08:58:05;12.40;;;5.73;;
17173;SDS011;8702;48.130;-1.696;2022-09-01T09:00:38;8.97;;;5.30;;
17173;SDS011;8702;48.130;-1.696;2022-09-01T09:03:12;10.70;;;5.50;;
17173;SDS011;8702;48.130;-1.696;2022-09-01T09:05:50;14.07;;;6.00;;
17173;SDS011;8702;48.130;-1.696;2022-09-01T09:08:33;13.27;;;5.57;;
17173;SDS011;8702;48.130;-1.696;2022-09-01T09:14:21;11.03;;;6.37;;
17173;SDS011;8702;48.130;-1.696;2022-09-01T09:17:03;9.50;;;5.90;;
17173;SDS011;8702;48.130;-1.696;2022-09-01T09:19:31;12.40;;;5.90;;
17173;SDS011;8702;48.130;-1.696;2022-09-01T09:22:01;10.37;;;6.00;;
17173;SDS011;8702;48.130;-1.696;2022-09-01T09:24:31;9.97;;;5.20;;
17173;SDS011;8702;48.130;-1.696;2022-09-01T09:27:17;10.27;;;6.40;;
17173;SDS011;8702;48.130;-1.696;2022-09-01T09:29:46;12.73;;;5.87;;
17173;SDS011;8702;48.130;-1.696;2022-09-01T09:32:18;12.90;;;5.47;;
17173;SDS011;8702;48.130;-1.696;2022-09-01T09:34:46;11.33;;;5.77;;
17173;SDS011;8702;48.130;-1.696;2022-09-01T09:37:20;10.17;;;5.93;;
17173;SDS011;8702;48.130;-1.696;2022-09-01T09:42:43;9.53;;;5.77;;
17173;SDS011;8702;48.130;-1.696;2022-09-01T09:45:28;9.07;;;5.80;;
17173;SDS011;8702;48.130;-1.696;2022-09-01T09:47:59;10.80;;;4.97;;
17173;SDS011;8702;48.130;-1.696;2022-09-01T09:50:32;13.23;;;6.50;;
17173;SDS011;8702;48.130;-1.696;2022-09-01T09:53:11;10.70;;;6.87;;
17173;SDS011;8702;48.130;-1.696;2022-09-01T09:55:57;14.43;;;6.63;;
17173;SDS011;8702;48.130;-1.696;2022-09-01T09:58:27;12.20;;;7.00;;
17173;SDS011;8702;48.130;-1.696;2022-09-01T10:01:03;12.07;;;6.60;;
17173;SDS011;8702;48.130;-1.696;2022-09-01T10:03:34;13.23;;;6.47;;
17173;SDS011;8702;48.130;-1.696;2022-09-01T10:06:04;10.40;;;5.70;;
17173;SDS011;8702;48.130;-1.696;2022-09-01T10:08:37;11.53;;;6.07;;
17173;SDS011;8702;48.130;-1.696;2022-09-01T10:11:09;12.63;;;6.50;;
17173;SDS011;8702;48.130;-1.696;2022-09-01T10:13:50;11.03;;;6.23;;
17173;SDS011;8702;48.130;-1.696;2022-09-01T10:16:19;9.53;;;5.87;;
17173;SDS011;8702;48.130;-1.696;2022-09-01T10:18:52;9.83;;;5.67;;
17173;SDS011;8702;48.130;-1.696;2022-09-01T10:21:25;12.13;;;6.60;;
17173;SDS011;8702;48.130;-1.696;2022-09-01T10:23:55;11.87;;;5.50;;
17173;SDS011;8702;48.130;-1.696;2022-09-01T10:26:24;9.93;;;6.10;;
17173;SDS011;8702;48.130;-1.696;2022-09-01T10:28:57;9.23;;;5.60;;
17173;SDS011;8702;48.130;-1.696;2022-09-01T10:31:27;12.47;;;6.40;;
17173;SDS011;8702;48.130;-1.696;2022-09-01T10:33:56;10.20;;;6.03;;
17173;SDS011;8702;48.130;-1.696;2022-09-01T10:36:24;10.40;;;6.17;;
17173;SDS011;8702;48.130;-1.696;2022-09-01T10:38:51;8.60;;;5.53;;
17173;SDS011;8702;48.130;-1.696;2022-09-01T10:44:17;11.37;;;6.43;;
17173;SDS011;8702;48.130;-1.696;2022-09-01T10:46:46;9.03;;;6.57;;
17173;SDS011;8702;48.130;-1.696;2022-09-01T10:49:55;8.43;;;6.30;;
17173;SDS011;8702;48.130;-1.696;2022-09-01T10:55:34;7.50;;;5.80;;
17173;SDS011;8702;48.130;-1.696;2022-09-01T11:01:07;11.03;;;6.00;;
17173;SDS011;8702;48.130;-1.696;2022-09-01T11:03:38;8.23;;;4.70;;
17173;SDS011;8702;48.130;-1.696;2022-09-01T11:06:44;12.17;;;5.70;;
17173;SDS011;8702;48.130;-1.696;2022-09-01T11:09:31;13.77;;;6.07;;
17173;SDS011;8702;48.130;-1.696;2022-09-01T11:14:55;6.57;;;5.77;;
17173;SDS011;8702;48.130;-1.696;2022-09-01T11:17:23;8.43;;;5.07;;
17173;SDS011;8702;48.130;-1.696;2022-09-01T11:20:05;8.10;;;5.00;;
17173;SDS011;8702;48.130;-1.696;2022-09-01T11:22:38;9.07;;;5.63;;
17173;SDS011;8702;48.130;-1.696;2022-09-01T11:25:11;7.93;;;5.70;;
17173;SDS011;8702;48.130;-1.696;2022-09-01T11:28:06;10.37;;;5.63;;
17173;SDS011;8702;48.130;-1.696;2022-09-01T11:30:38;10.73;;;6.13;;
17173;SDS011;8702;48.130;-1.696;2022-09-01T11:33:29;11.03;;;5.63;;
17173;SDS011;8702;48.130;-1.696;2022-09-01T11:36:13;7.20;;;5.23;;
17173;SDS011;8702;48.130;-1.696;2022-09-01T11:38:55;11.23;;;5.37;;
17173;SDS011;8702;48.130;-1.696;2022-09-01T11:41:33;9.13;;;5.63;;
17173;SDS011;8702;48.130;-1.696;2022-09-01T11:44:12;10.80;;;5.70;;
17173;SDS011;8702;48.130;-1.696;2022-09-01T11:46:42;11.90;;;5.73;;
17173;SDS011;8702;48.130;-1.696;2022-09-01T11:49:20;9.17;;;5.80;;
17173;SDS011;8702;48.130;-1.696;2022-09-01T11:51:57;9.30;;;5.63;;
17173;SDS011;8702;48.130;-1.696;2022-09-01T11:54:27;8.90;;;5.93;;
17173;SDS011;8702;48.130;-1.696;2022-09-01T11:57:15;11.23;;;5.43;;
17173;SDS011;8702;48.130;-1.696;2022-09-01T11:59:53;8.77;;;5.40;;
17173;SDS011;8702;48.130;-1.696;2022-09-01T12:02:22;8.63;;;4.90;;
17173;SDS011;8702;48.130;-1.696;2022-09-01T12:04:51;8.10;;;4.90;;
17173;SDS011;8702;48.130;-1.696;2022-09-01T12:07:24;6.73;;;4.57;;
17173;SDS011;8702;48.130;-1.696;2022-09-01T12:10:02;7.13;;;4.90;;
17173;SDS011;8702;48.130;-1.696;2022-09-01T12:12:33;8.33;;;4.00;;
17173;SDS011;8702;48.130;-1.696;2022-09-01T12:15:04;9.07;;;5.10;;
17173;SDS011;8702;48.130;-1.696;2022-09-01T12:17:34;7.67;;;4.33;;
17173;SDS011;8702;48.130;-1.696;2022-09-01T12:20:18;8.13;;;4.27;;
17173;SDS011;8702;48.130;-1.696;2022-09-01T12:22:47;5.53;;;4.00;;
17173;SDS011;8702;48.130;-1.696;2022-09-01T12:25:18;4.70;;;3.60;;
17173;SDS011;8702;48.130;-1.696;2022-09-01T12:27:48;5.07;;;3.90;;
17173;SDS011;8702;48.130;-1.696;2022-09-01T12:30:15;7.93;;;4.37;;
17173;SDS011;8702;48.130;-1.696;2022-09-01T12:32:51;7.73;;;4.27;;
17173;SDS011;8702;48.130;-1.696;2022-09-01T12:35:19;8.30;;;3.80;;
17173;SDS011;8702;48.130;-1.696;2022-09-01T12:37:48;6.03;;;3.80;;
17173;SDS011;8702;48.130;-1.696;2022-09-01T12:40:23;9.00;;;4.30;;
17173;SDS011;8702;48.130;-1.696;2022-09-01T12:42:56;4.13;;;3.70;;
17173;SDS011;8702;48.130;-1.696;2022-09-01T12:45:36;4.50;;;3.70;;
17173;SDS011;8702;48.130;-1.696;2022-09-01T12:48:22;14.63;;;4.67;;
17173;SDS011;8702;48.130;-1.696;2022-09-01T12:50:52;5.47;;;3.37;;
17173;SDS011;8702;48.130;-1.696;2022-09-01T12:53:21;8.13;;;4.07;;
17173;SDS011;8702;48.130;-1.696;2022-09-01T12:55:58;7.47;;;4.47;;
17173;SDS011;8702;48.130;-1.696;2022-09-01T12:58:40;6.27;;;3.27;;
17173;SDS011;8702;48.130;-1.696;2022-09-01T13:01:21;8.37;;;3.33;;
17173;SDS011;8702;48.130;-1.696;2022-09-01T13:06:48;2.57;;;2.07;;
17173;SDS011;8702;48.130;-1.696;2022-09-01T13:09:16;2.77;;;1.70;;
17173;SDS011;8702;48.130;-1.696;2022-09-01T13:11:45;4.13;;;1.70;;
17173;SDS011;8702;48.130;-1.696;2022-09-01T13:14:12;8.07;;;2.13;;
17173;SDS011;8702;48.130;-1.696;2022-09-01T13:16:40;2.30;;;1.60;;
17173;SDS011;8702;48.130;-1.696;2022-09-01T13:19:07;5.93;;;2.00;;
17173;SDS011;8702;48.130;-1.696;2022-09-01T13:21:37;8.30;;;1.90;;
17173;SDS011;8702;48.130;-1.696;2022-09-01T13:24:05;3.33;;;1.83;;
17173;SDS011;8702;48.130;-1.696;2022-09-01T13:26:32;4.83;;;2.17;;
17173;SDS011;8702;48.130;-1.696;2022-09-01T13:29:01;3.13;;;1.97;;
17173;SDS011;8702;48.130;-1.696;2022-09-01T13:31:29;4.17;;;1.90;;
17173;SDS011;8702;48.130;-1.696;2022-09-01T13:33:56;6.97;;;2.27;;
17173;SDS011;8702;48.130;-1.696;2022-09-01T13:36:24;3.30;;;1.83;;
17173;SDS011;8702;48.130;-1.696;2022-09-01T13:38:54;4.13;;;1.90;;
17173;SDS011;8702;48.130;-1.696;2022-09-01T13:41:21;4.60;;;2.23;;
17173;SDS011;8702;48.130;-1.696;2022-09-01T13:43:48;3.17;;;2.13;;
17173;SDS011;8702;48.130;-1.696;2022-09-01T13:46:16;3.63;;;2.23;;
17173;SDS011;8702;48.130;-1.696;2022-09-01T13:48:43;4.10;;;2.40;;
17173;SDS011;8702;48.130;-1.696;2022-09-01T13:51:11;5.13;;;2.43;;
17173;SDS011;8702;48.130;-1.696;2022-09-01T13:53:38;3.97;;;2.27;;
17173;SDS011;8702;48.130;-1.696;2022-09-01T13:56:05;2.57;;;2.27;;
17173;SDS011;8702;48.130;-1.696;2022-09-01T13:58:32;2.37;;;2.17;;
17173;SDS011;8702;48.130;-1.696;2022-09-01T14:00:59;6.07;;;2.47;;
17173;SDS011;8702;48.130;-1.696;2022-09-01T14:03:28;6.13;;;2.20;;
17173;SDS011;8702;48.130;-1.696;2022-09-01T14:05:56;5.47;;;2.57;;
17173;SDS011;8702;48.130;-1.696;2022-09-01T14:08:23;5.60;;;2.17;;
17173;SDS011;8702;48.130;-1.696;2022-09-01T14:10:51;12.60;;;3.10;;
17173;SDS011;8702;48.130;-1.696;2022-09-01T14:13:19;4.90;;;2.33;;
17173;SDS011;8702;48.130;-1.696;2022-09-01T14:15:47;3.70;;;2.50;;
17173;SDS011;8702;48.130;-1.696;2022-09-01T14:18:16;5.50;;;2.53;;
17173;SDS011;8702;48.130;-1.696;2022-09-01T14:20:45;3.73;;;2.30;;
17173;SDS011;8702;48.130;-1.696;2022-09-01T14:23:15;5.40;;;2.50;;
17173;SDS011;8702;48.130;-1.696;2022-09-01T14:25:46;3.57;;;2.37;;
17173;SDS011;8702;48.130;-1.696;2022-09-01T14:28:14;3.73;;;2.30;;
17173;SDS011;8702;48.130;-1.696;2022-09-01T14:30:43;5.87;;;2.20;;
17173;SDS011;8702;48.130;-1.696;2022-09-01T14:33:10;4.23;;;2.40;;
17173;SDS011;8702;48.130;-1.696;2022-09-01T14:35:39;3.67;;;2.40;;
17173;SDS011;8702;48.130;-1.696;2022-09-01T14:38:09;3.03;;;2.17;;
17173;SDS011;8702;48.130;-1.696;2022-09-01T14:40:38;3.03;;;2.07;;
17173;SDS011;8702;48.130;-1.696;2022-09-01T14:43:06;5.17;;;2.53;;
17173;SDS011;8702;48.130;-1.696;2022-09-01T14:45:36;5.13;;;2.80;;
17173;SDS011;8702;48.130;-1.696;2022-09-01T14:48:04;2.47;;;2.27;;
17173;SDS011;8702;48.130;-1.696;2022-09-01T14:50:33;5.30;;;2.67;;
17173;SDS011;8702;48.130;-1.696;2022-09-01T14:53:05;7.90;;;3.67;;
17173;SDS011;8702;48.130;-1.696;2022-09-01T14:55:33;5.10;;;3.67;;
17173;SDS011;8702;48.130;-1.696;2022-09-01T14:58:01;6.03;;;4.17;;
17173;SDS011;8702;48.130;-1.696;2022-09-01T15:00:29;6.73;;;3.90;;
17173;SDS011;8702;48.130;-1.696;2022-09-01T15:02:59;7.27;;;3.83;;
17173;SDS011;8702;48.130;-1.696;2022-09-01T15:05:26;7.80;;;3.87;;
17173;SDS011;8702;48.130;-1.696;2022-09-01T15:07:54;6.63;;;3.87;;
17173;SDS011;8702;48.130;-1.696;2022-09-01T15:10:22;7.67;;;3.63;;
17173;SDS011;8702;48.130;-1.696;2022-09-01T15:12:52;6.23;;;4.10;;
17173;SDS011;8702;48.130;-1.696;2022-09-01T15:15:20;7.40;;;3.90;;
17173;SDS011;8702;48.130;-1.696;2022-09-01T15:17:47;7.27;;;4.20;;
17173;SDS011;8702;48.130;-1.696;2022-09-01T15:20:14;8.47;;;4.50;;
17173;SDS011;8702;48.130;-1.696;2022-09-01T15:22:59;4.90;;;4.17;;